Time;durP1;ratioP1;P1;durP2;ratioP2;P2;SDS_P1;SDS_P2;PMS_P1;PMS_P2;Temp;Humidity;BMP_temperature;BMP_pressure;BME280_temperature;BME280_humidity;BME280_pressure;Samples;Min_cycle;Max_cycle;Signal;HPM_P1;HPM_P2
2021/08/12 00:00:54;;;;;;;0.95;0.95;;;16.10;91.20;;;18.66;78.25;101951.09;3192217;30;130750;-74
2021/08/12 00:04:02;;;;;;;1.25;0.80;;;16.10;90.90;;;18.61;78.26;101954.78;3194365;38;130897;-74
2021/08/12 00:07:09;;;;;;;2.35;1.08;;;16.10;90.90;;;18.57;78.18;101953.84;3189790;38;131575;-74
2021/08/12 00:10:16;;;;;;;6.45;2.38;;;16.00;90.90;;;18.56;78.18;101954.97;3191148;38;130934;-74
2021/08/12 00:13:23;;;;;;;4.18;1.15;;;16.00;90.90;;;18.53;78.02;101943.97;3189967;38;131592;-74
2021/08/12 00:16:30;;;;;;;5.25;2.67;;;16.00;90.90;;;18.40;78.53;101950.38;3191259;38;132387;-74
2021/08/12 00:19:37;;;;;;;0.93;0.73;;;16.00;90.90;;;18.48;77.95;101944.94;3191526;38;131588;-74
2021/08/12 00:22:43;;;;;;;1.23;0.77;;;15.90;90.90;;;18.40;78.08;101950.38;3190810;30;130510;-74
2021/08/12 00:25:49;;;;;;;0.75;0.75;;;15.90;90.90;;;18.36;78.26;101949.44;3189335;38;130830;-75
2021/08/12 00:28:55;;;;;;;5.15;1.92;;;15.90;90.90;;;18.34;78.32;101944.34;3192029;30;129835;-74
2021/08/12 00:32:02;;;;;;;0.57;0.57;;;15.90;90.90;;;18.35;78.02;101950.56;3189884;38;131400;-74
2021/08/12 00:35:14;;;;;;;3.55;0.80;;;15.80;90.80;;;18.37;77.74;101957.28;3189240;38;130853;-74
2021/08/12 00:38:22;;;;;;;1.27;1.17;;;15.80;90.80;;;18.32;77.76;101946.59;3189929;30;130573;-74
2021/08/12 00:41:35;;;;;;;5.00;0.98;;;15.80;90.80;;;18.31;77.75;101944.19;3189732;30;129760;-74
2021/08/12 00:44:44;;;;;;;1.85;0.93;;;15.80;90.80;;;18.19;78.46;101941.34;3189676;30;132456;-74
2021/08/12 00:47:51;;;;;;;0.43;0.43;;;15.70;91.10;;;18.17;78.21;101940.88;3190918;38;130406;-74
2021/08/12 00:50:58;;;;;;;3.75;1.95;;;15.70;90.80;;;18.20;78.31;101942.94;3187122;38;131028;-74
2021/08/12 00:54:08;;;;;;;0.30;0.30;;;15.70;90.80;;;18.18;78.00;101932.38;3190970;38;129957;-74
2021/08/12 00:57:15;;;;;;;2.17;1.50;;;15.70;90.80;;;18.24;77.72;101941.94;3189945;38;132217;-74
2021/08/12 01:00:21;;;;;;;1.75;1.05;;;15.70;90.80;;;18.24;77.52;101941.94;3190581;38;130866;-75
2021/08/12 01:03:29;;;;;;;1.55;1.38;;;15.60;90.80;;;18.23;77.62;101934.91;3190408;30;131399;-75
2021/08/12 01:06:53;;;;;;;0.50;0.50;;;15.60;90.80;;;18.19;77.75;101938.63;3191210;38;129921;-75
2021/08/12 01:10:13;;;;;;;2.95;0.80;;;15.60;90.80;;;18.17;77.66;101940.88;3192557;30;130633;-74
2021/08/12 01:13:44;;;;;;;8.57;1.58;;;15.60;90.80;;;18.13;77.41;101946.13;3189661;30;130744;-74
2021/08/12 01:17:00;;;;;;;2.67;0.82;;;15.50;90.80;;;18.13;77.77;101948.03;3189851;38;130718;-74
2021/08/12 01:21:06;;;;;;;2.47;1.45;;;15.50;90.80;;;18.09;77.65;101937.03;3190894;30;130542;-74
2021/08/12 01:24:17;;;;;;;0.65;0.52;;;15.50;90.80;;;18.04;77.63;101942.63;3191628;38;134046;-74
2021/08/12 01:27:31;;;;;;;;;;;15.50;90.70;;;18.03;77.42;101943.75;3192767;30;132078;-74
2021/08/12 01:31:11;;;;;;;0.40;0.40;;;15.50;90.70;;;18.01;77.27;101939.75;3191768;38;130621;-75
2021/08/12 01:34:29;;;;;;;0.55;0.55;;;15.40;90.70;;;17.99;77.40;101942.00;3190207;38;129712;-74
2021/08/12 01:37:45;;;;;;;0.20;0.20;;;15.40;90.70;;;17.97;77.47;101941.53;3188882;38;131843;-74
2021/08/12 01:40:55;;;;;;;0.88;0.88;;;15.40;90.70;;;17.93;77.52;101937.88;3192649;38;130240;-74
2021/08/12 01:44:06;;;;;;;2.33;1.45;;;15.40;90.70;;;17.89;77.63;101935.00;3190847;30;132258;-75
2021/08/12 01:47:14;;;;;;;0.75;0.75;;;15.40;90.70;;;17.83;77.79;101933.56;3190770;30;129839;-74
2021/08/12 01:50:33;;;;;;;1.95;1.40;;;15.30;90.70;;;17.84;77.69;101937.06;3189445;38;132940;-74
2021/08/12 01:53:42;;;;;;;2.55;0.77;;;15.30;90.70;;;17.77;77.63;101926.72;3189716;38;131376;-74
2021/08/12 01:56:48;;;;;;;3.40;1.52;;;15.20;90.60;;;17.70;77.89;101923.69;3189321;38;130556;-74
2021/08/12 01:59:56;;;;;;;0.95;0.50;;;15.20;90.60;;;17.65;77.83;101915.72;3187611;38;129736;-74
2021/08/12 02:03:11;;;;;;;0.68;0.65;;;15.20;90.90;;;17.62;77.75;101921.78;3190002;38;130572;-74
2021/08/12 02:06:22;;;;;;;1.65;1.55;;;15.10;90.70;;;17.58;77.84;101926.25;3189447;30;130174;-74
2021/08/12 02:09:30;;;;;;;3.35;0.77;;;15.00;90.60;;;17.58;77.76;101909.97;3190362;38;131252;-74
2021/08/12 02:12:38;;;;;;;0.50;0.50;;;15.10;90.70;;;17.56;77.73;101909.50;3190006;38;130893;-75
2021/08/12 02:15:46;;;;;;;1.55;1.30;;;15.00;90.70;;;17.52;77.69;101907.75;3188762;38;130378;-74
2021/08/12 02:18:52;;;;;;;6.22;1.75;;;15.00;90.70;;;17.50;77.36;101894.53;3189586;38;131787;-74
2021/08/12 02:22:07;;;;;;;0.80;0.75;;;14.90;90.70;;;17.47;77.56;101891.66;3191937;30;131693;-74
2021/08/12 02:25:25;;;;;;;1.30;1.10;;;14.90;90.70;;;17.42;77.72;101889.91;3189805;38;129783;-74
2021/08/12 02:28:35;;;;;;;0.45;0.45;;;14.90;90.70;;;17.42;77.47;101892.63;3191089;30;130091;-74
2021/08/12 02:31:46;;;;;;;3.72;1.30;;;14.90;90.70;;;17.42;77.53;101897.22;3191701;38;130481;-74
2021/08/12 02:34:55;;;;;;;1.08;0.93;;;14.80;90.70;;;17.41;77.59;101901.88;3192203;38;130761;-74
2021/08/12 02:38:06;;;;;;;7.97;1.90;;;14.80;90.70;;;17.40;77.38;101899.47;3191084;30;130319;-75
2021/08/12 02:41:20;;;;;;;0.40;0.40;;;14.80;90.70;;;17.38;77.24;101902.47;3192494;38;130881;-75
2021/08/12 02:44:30;;;;;;;0.75;0.63;;;14.80;90.70;;;17.37;77.24;101906.31;3191091;38;134233;-75
2021/08/12 02:47:37;;;;;;;1.15;0.98;;;14.80;91.00;;;17.38;77.17;101907.13;3192038;38;130704;-75
2021/08/12 02:50:47;;;;;;;5.63;0.77;;;14.70;90.70;;;17.35;77.15;101910.47;3191211;38;130755;-74
2021/08/12 02:53:54;;;;;;;3.03;1.75;;;14.70;90.70;;;17.32;77.54;101909.16;3191760;30;130660;-74
2021/08/12 02:57:05;;;;;;;1.35;1.25;;;14.70;90.60;;;17.31;77.23;101896.72;3190033;38;130772;-74
2021/08/12 03:00:19;;;;;;;3.35;0.98;;;14.80;90.70;;;17.28;77.56;101899.28;3192557;30;130203;-74
2021/08/12 03:03:28;;;;;;;3.88;0.90;;;14.70;90.60;;;17.33;77.12;101897.22;3188944;38;131561;-74
2021/08/12 03:06:35;;;;;;;1.27;1.20;;;14.70;90.60;;;17.34;77.19;101906.94;3191520;38;130377;-74
2021/08/12 03:09:44;;;;;;;1.95;1.40;;;14.70;90.60;;;17.36;77.14;101895.81;3189614;38;130289;-74
2021/08/12 03:12:54;;;;;;;1.25;1.17;;;14.70;90.60;;;17.39;76.80;101900.59;3188413;38;132565;-74
2021/08/12 03:16:02;;;;;;;2.40;0.77;;;14.70;90.60;;;17.40;76.71;101902.94;3190912;38;129516;-74
2021/08/12 03:19:09;;;;;;;2.45;1.00;;;14.70;90.60;;;17.38;76.86;101902.47;3194465;38;130818;-74
2021/08/12 03:22:17;;;;;;;2.92;0.70;;;14.70;90.50;;;17.35;76.83;101911.25;3198478;38;130057;-74
2021/08/12 03:25:24;;;;;;;1.90;1.55;;;14.70;90.50;;;17.31;76.81;101918.38;3195112;30;130812;-74
2021/08/12 03:28:31;;;;;;;0.45;0.45;;;14.70;90.50;;;17.27;77.21;101922.84;3189635;38;133066;-74
2021/08/12 03:31:37;;;;;;;2.95;1.38;;;14.70;90.60;;;17.25;76.83;101918.84;3191749;38;131549;-74
2021/08/12 03:34:43;;;;;;;0.15;0.15;;;14.70;90.60;;;17.25;76.79;101923.50;3189234;38;130497;-74
2021/08/12 03:37:49;;;;;;;2.03;1.70;;;14.60;90.50;;;17.25;76.82;101923.50;3189386;30;135447;-74
2021/08/12 03:40:57;;;;;;;1.42;1.25;;;14.60;90.50;;;17.21;77.13;101922.53;3190932;30;133558;-74
2021/08/12 03:44:11;;;;;;;0.77;0.77;;;14.60;90.50;;;17.15;76.86;101918.38;3190073;38;131199;-74
2021/08/12 03:47:26;;;;;;;0.57;0.57;;;14.60;90.50;;;17.11;77.14;101917.41;3191412;30;131048;-74
2021/08/12 03:50:32;;;;;;;0.38;0.38;;;14.60;90.50;;;17.10;77.15;101915.81;3192267;38;130890;-74
2021/08/12 03:53:38;;;;;;;1.85;1.50;;;14.50;90.50;;;17.06;77.14;101914.84;3193442;38;129759;-74
2021/08/12 03:56:45;;;;;;;0.95;0.90;;;14.50;90.50;;;17.04;77.29;101906.25;3193574;30;131630;-74
2021/08/12 03:59:53;;;;;;;1.80;0.63;;;14.40;90.50;;;17.02;77.09;101909.28;3191334;30;130053;-74
2021/08/12 04:03:00;;;;;;;3.55;1.27;;;14.40;90.50;;;16.99;77.01;101909.09;3195367;30;129834;-74
2021/08/12 04:06:09;;;;;;;3.20;1.35;;;14.40;90.50;;;17.00;77.03;101902.56;3192201;38;130951;-74
2021/08/12 04:09:15;;;;;;;1.98;0.98;;;14.40;90.80;;;17.03;77.10;101904.66;3191995;38;129757;-74
2021/08/12 04:12:21;;;;;;;0.98;0.75;;;14.40;90.60;;;17.07;76.79;101905.59;3193605;30;131549;-74
2021/08/12 04:15:29;;;;;;;0.85;0.85;;;14.40;90.60;;;17.14;76.51;101911.38;3191150;30;130178;-74
2021/08/12 04:18:36;;;;;;;1.17;1.08;;;14.40;90.60;;;17.12;76.53;101913.59;3190276;38;130738;-74
2021/08/12 04:21:42;;;;;;;4.85;1.65;;;14.40;90.50;;;17.18;76.46;101912.34;3191490;38;129868;-74
2021/08/12 04:24:49;;;;;;;0.70;0.70;;;14.50;90.50;;;17.22;76.29;101902.44;3193479;38;130813;-74
2021/08/12 04:27:55;;;;;;;16.35;2.15;;;14.50;90.50;;;17.22;76.22;101897.81;3191870;38;130725;-74
2021/08/12 04:31:04;;;;;;;0.57;0.57;;;14.50;90.50;;;17.18;76.18;101910.41;3194154;38;131092;-74
2021/08/12 04:34:11;;;;;;;1.52;0.93;;;14.50;90.40;;;17.18;76.44;101915.81;3193283;30;130649;-74
2021/08/12 04:37:18;;;;;;;1.33;1.25;;;14.50;90.40;;;17.19;76.19;101922.84;3192815;38;130516;-74
2021/08/12 04:40:25;;;;;;;0.65;0.65;;;14.50;90.30;;;17.21;76.53;101919.81;3195283;38;130735;-74
2021/08/12 04:43:34;;;;;;;1.23;1.13;;;14.50;90.30;;;17.24;76.19;101916.47;3193118;30;131546;-74
2021/08/12 04:46:42;;;;;;;0.73;0.73;;;14.60;90.40;;;17.30;76.09;101922.22;3193909;30;130741;-74
2021/08/12 04:49:50;;;;;;;0.25;0.25;;;14.60;90.30;;;17.38;75.72;101929.56;3193472;38;130275;-74
2021/08/12 04:52:56;;;;;;;1.38;1.27;;;14.60;90.30;;;17.47;75.87;101937.72;3188702;38;131237;-74
2021/08/12 04:56:06;;;;;;;4.10;2.88;;;14.70;90.30;;;17.60;75.62;101921.28;3193155;30;131308;-74
2021/08/12 04:59:15;;;;;;;0.70;0.57;;;14.80;90.20;;;17.81;74.79;101930.38;3191405;38;132083;-74
2021/08/12 05:02:23;;;;;;;11.48;2.17;;;14.90;90.20;;;18.10;74.52;101929.69;3190927;38;130508;-75
2021/08/12 05:05:30;;;;;;;1.08;1.02;;;15.00;90.10;;;18.45;73.62;101931.19;3193111;30;131768;-74
2021/08/12 05:08:36;;;;;;;3.85;1.60;;;15.20;89.70;;;18.80;72.64;101938.88;3190236;38;131565;-74
2021/08/12 05:11:43;;;;;;;1.00;0.70;;;15.50;89.20;;;19.16;72.17;101936.47;3195304;38;130851;-74
2021/08/12 05:14:50;;;;;;;0.82;0.82;;;15.80;88.60;;;19.52;71.37;101921.19;3190456;30;131342;-74
2021/08/12 05:18:00;;;;;;;2.58;0.52;;;16.10;88.10;;;19.88;70.73;101920.53;3186506;38;130489;-75
2021/08/12 05:21:07;;;;;;;2.70;1.10;;;16.40;87.70;;;20.08;70.46;101920.53;3189519;38;129841;-75
2021/08/12 05:24:14;;;;;;;2.20;1.80;;;16.60;87.50;;;20.19;70.67;101926.34;3188639;38;130811;-74
2021/08/12 05:27:20;;;;;;;3.92;1.38;;;16.80;87.30;;;20.20;71.05;101922.47;3188315;38;131043;-75
2021/08/12 05:30:26;;;;;;;5.78;1.48;;;16.90;87.30;;;20.21;71.19;101924.84;3190962;30;130654;-75
2021/08/12 05:33:36;;;;;;;1.55;1.45;;;16.90;87.20;;;20.34;71.43;101925.66;3190584;30;131310;-74
2021/08/12 05:36:41;;;;;;;3.55;0.93;;;17.10;87.30;;;20.53;70.84;101924.00;3189482;38;131274;-74
2021/08/12 05:39:47;;;;;;;2.83;2.17;;;17.20;87.20;;;20.72;70.36;101921.50;3192133;30;130864;-74
2021/08/12 05:42:53;;;;;;;2.58;1.38;;;17.30;87.00;;;21.06;69.93;101927.31;3189280;30;130498;-74
2021/08/12 05:46:00;;;;;;;1.20;1.10;;;17.60;86.80;;;22.95;65.35;101922.38;3189631;38;131259;-75
2021/08/12 05:49:09;;;;;;;0.85;0.70;;;18.40;85.80;;;24.34;62.30;101921.78;3190084;38;129703;-75
2021/08/12 05:52:16;;;;;;;2.88;2.40;;;19.30;84.50;;;26.01;59.31;101914.38;3189752;30;129763;-75
2021/08/12 05:55:22;;;;;;;2.13;1.92;;;20.60;82.40;;;27.68;57.08;101921.13;3190891;30;129845;-75
2021/08/12 05:58:28;;;;;;;1.33;1.10;;;22.00;80.60;;;29.10;55.40;101914.16;3190208;38;130993;-75
2021/08/12 06:01:34;;;;;;;3.83;2.17;;;23.30;79.30;;;31.58;51.51;101906.75;3191008;30;130261;-76
2021/08/12 06:04:42;;;;;;;1.50;1.13;;;24.90;77.60;;;34.20;47.39;101905.50;3190737;30;131234;-76
2021/08/12 06:07:50;;;;;;;3.17;1.85;;;26.90;74.40;;;35.41;47.09;101902.66;3189781;38;130385;-76
2021/08/12 06:10:57;;;;;;;16.05;2.42;;;28.60;72.10;;;34.57;50.62;101916.09;3188990;38;131620;-76
2021/08/12 06:14:09;;;;;;;3.13;1.95;;;29.20;72.00;;;33.15;55.29;101906.19;3191232;38;130759;-76
2021/08/12 06:17:15;;;;;;;2.63;1.77;;;28.90;73.30;;;34.36;53.28;101913.06;3190336;30;131868;-76
2021/08/12 06:20:23;;;;;;;5.05;2.22;;;29.10;74.50;;;36.08;50.85;101904.22;3191542;30;129683;-76
2021/08/12 06:23:29;;;;;;;3.88;1.98;;;30.20;74.00;;;38.80;46.88;101910.63;3188626;38;130470;-77
2021/08/12 06:26:35;;;;;;;3.42;2.20;;;31.70;72.60;;;38.84;47.64;101905.66;3190856;30;129813;-77
2021/08/12 06:29:42;;;;;;;2.28;1.52;;;32.50;71.60;;;39.89;46.75;101901.53;3188781;38;129744;-77
2021/08/12 06:32:47;;;;;;;4.47;2.75;;;33.40;71.00;;;38.41;51.41;101911.47;3190113;30;129972;-74
2021/08/12 06:35:56;;;;;;;9.00;2.40;;;33.30;71.30;;;36.15;56.88;101913.13;3188615;30;131079;-74
2021/08/12 06:39:02;;;;;;;4.00;2.97;;;32.60;73.20;;;35.26;58.40;101907.09;3190511;38;129876;-74
2021/08/12 06:42:10;;;;;;;7.32;1.85;;;31.80;74.90;;;35.41;58.63;101911.00;3190016;30;129801;-76
2021/08/12 06:45:36;;;;;;;6.45;2.58;;;31.40;76.40;;;34.78;59.39;101915.56;3190035;38;129860;-76
2021/08/12 06:48:43;;;;;;;3.88;2.28;;;31.00;76.90;;;34.04;60.37;101917.81;3189321;38;129879;-76
2021/08/12 06:52:10;;;;;;;5.90;2.83;;;30.50;76.90;;;33.97;60.75;101923.53;3187034;38;131138;-76
2021/08/12 06:55:19;;;;;;;2.03;1.33;;;30.10;77.60;;;34.07;60.46;101922.50;3188287;38;132700;-76
2021/08/12 06:58:25;;;;;;;3.05;1.70;;;30.00;78.50;;;34.14;60.86;101923.13;3191054;30;130718;-76
2021/08/12 07:01:32;;;;;;;2.55;2.03;;;29.90;79.10;;;35.76;56.81;101926.75;3189613;38;129831;-76
2021/08/12 07:04:38;;;;;;;3.60;1.77;;;30.20;79.10;;;36.27;55.71;101931.88;3191700;30;130366;-76
2021/08/12 07:07:46;;;;;;;4.53;1.92;;;30.60;77.80;;;36.34;55.73;101926.06;3188361;38;130406;-76
2021/08/12 07:10:54;;;;;;;7.32;2.20;;;30.90;77.20;;;37.37;53.45;101926.84;3187687;38;130036;-76
2021/08/12 07:14:01;;;;;;;4.13;2.15;;;31.20;76.60;;;39.98;47.67;101921.13;3187831;38;130444;-76
2021/08/12 07:17:09;;;;;;;2.58;1.52;;;32.20;74.50;;;42.02;44.38;101917.50;3187701;30;130226;-77
2021/08/12 07:20:17;;;;;;;5.57;2.47;;;33.40;72.70;;;44.72;40.53;101911.13;3186742;38;130288;-74
2021/08/12 07:23:27;;;;;;;4.78;1.35;;;35.20;70.90;;;46.73;38.67;101900.16;3186480;38;130230;-75
2021/08/12 07:26:34;;;;;;;5.25;2.92;;;36.80;69.50;;;48.11;37.61;101899.03;3187352;30;130247;-75
2021/08/12 07:29:40;;;;;;;3.38;1.80;;;38.10;68.20;;;49.27;37.05;101896.13;3188317;38;130728;-75
2021/08/12 07:32:47;;;;;;;3.75;1.95;;;39.20;67.40;;;50.24;36.26;101889.13;3188674;38;130722;-75
2021/08/12 07:35:53;;;;;;;3.22;1.63;;;40.30;66.60;;;51.00;35.78;101886.63;3189663;38;131113;-75
2021/08/12 07:39:01;;;;;;;2.60;1.52;;;41.20;66.30;;;51.99;35.83;101881.19;3190071;38;129841;-73
2021/08/12 07:42:21;;;;;;;3.40;0.93;;;42.00;66.00;;;52.43;35.12;101888.47;3191200;38;130727;-71
2021/08/12 07:45:27;;;;;;;2.00;1.50;;;42.50;65.40;;;52.73;35.21;101892.22;3190181;38;129737;-71
2021/08/12 07:48:33;;;;;;;1.83;0.77;;;42.80;65.50;;;52.98;35.51;101887.50;3191557;30;130084;-71
2021/08/12 07:51:39;;;;;;;0.60;0.60;;;43.10;65.70;;;53.21;35.20;101885.41;3188295;38;131304;-71
2021/08/12 07:54:49;;;;;;;4.07;1.92;;;43.30;65.70;;;53.11;35.04;101870.09;3190878;30;130227;-71
2021/08/12 07:57:55;;;;;;;1.27;1.15;;;43.40;65.00;;;53.21;34.84;101873.94;3189764;38;133322;-71
2021/08/12 08:01:02;;;;;;;2.60;1.30;;;43.30;65.30;;;53.26;35.35;101863.63;3190120;38;130800;-72
2021/08/12 08:04:10;;;;;;;3.13;1.60;;;43.20;65.70;;;53.27;34.94;101860.22;3191999;30;131126;-72
2021/08/12 08:07:17;;;;;;;0.50;0.50;;;43.10;65.30;;;53.37;34.43;101866.88;3189372;38;131251;-71
2021/08/12 08:10:28;;;;;;;1.17;1.08;;;43.10;65.40;;;53.15;34.57;101852.53;3189451;38;129950;-72
2021/08/12 08:13:35;;;;;;;1.10;1.07;;;43.00;65.00;;;53.00;34.64;101852.53;3189094;30;130445;-72
2021/08/12 08:17:00;;;;;;;0.88;0.63;;;42.80;65.50;;;53.15;34.18;101853.31;3190557;30;131245;-72
2021/08/12 08:20:13;;;;;;;1.33;1.02;;;42.70;65.70;;;53.14;34.41;101846.03;3188761;38;130818;-72
2021/08/12 08:23:21;;;;;;;1.58;1.13;;;42.60;65.80;;;53.11;34.08;101846.44;3189010;30;129847;-72
2021/08/12 08:26:28;;;;;;;1.70;0.98;;;42.50;66.00;;;52.79;34.01;101844.09;3187941;38;130392;-72
2021/08/12 08:29:34;;;;;;;2.00;1.08;;;42.40;65.30;;;52.75;34.45;101837.97;3189882;30;131002;-72
2021/08/12 08:32:40;;;;;;;2.20;1.05;;;42.10;66.40;;;52.71;34.61;101837.59;3189343;38;131061;-73
2021/08/12 08:35:46;;;;;;;0.57;0.52;;;42.00;66.90;;;52.55;35.09;101841.75;3188709;38;130832;-73
2021/08/12 08:38:52;;;;;;;1.60;0.50;;;42.00;67.10;;;52.63;34.85;101836.03;3189030;30;132033;-74
2021/08/12 08:41:59;;;;;;;0.95;0.75;;;41.90;67.30;;;52.34;35.36;101843.19;3188628;38;129952;-72
2021/08/12 08:45:10;;;;;;;2.35;1.35;;;41.90;67.70;;;52.12;36.16;101838.16;3189087;38;131301;-73
2021/08/12 08:48:19;;;;;;;1.70;1.05;;;41.80;68.30;;;51.88;36.28;101837.78;3189567;38;130976;-73
2021/08/12 08:51:26;;;;;;;0.60;0.60;;;41.70;68.30;;;51.01;37.14;101831.06;3187152;38;132186;-74
2021/08/12 08:54:34;;;;;;;1.15;1.08;;;41.50;68.10;;;50.68;37.73;101833.91;3189042;38;129870;-75
2021/08/12 08:57:41;;;;;;;1.13;1.02;;;41.20;68.40;;;50.36;37.61;101829.75;3190198;38;130312;-74
2021/08/12 09:00:47;;;;;;;0.98;0.57;;;40.80;68.30;;;50.26;37.77;101834.34;3188520;38;129742;-74
2021/08/12 09:03:53;;;;;;;1.63;0.90;;;40.60;69.40;;;50.06;38.06;101832.97;3188024;38;130073;-74
2021/08/12 09:06:59;;;;;;;1.15;0.95;;;40.50;69.70;;;50.05;38.82;101830.69;3187973;38;131474;-73
2021/08/12 09:10:14;;;;;;;0.98;0.50;;;40.40;70.40;;;50.12;39.79;101822.19;3189827;38;129754;-74
2021/08/12 09:13:22;;;;;;;2.28;1.67;;;40.50;70.80;;;49.77;39.57;101828.34;3190123;38;130726;-75
2021/08/12 09:16:33;;;;;;;1.63;1.00;;;40.50;70.30;;;49.39;40.58;101829.06;3190282;30;129811;-75
2021/08/12 09:19:39;;;;;;;0.45;0.45;;;40.30;70.40;;;49.00;40.25;101834.66;3189531;30;131091;-75
2021/08/12 09:22:59;;;;;;;0.50;0.50;;;40.00;70.70;;;48.38;40.98;101830.41;3194469;38;130738;-74
2021/08/12 09:26:24;;;;;;;1.08;0.75;;;39.70;70.30;;;47.61;41.81;101833.38;3198025;38;129777;-74
2021/08/12 09:29:34;;;;;;;0.85;0.75;;;39.20;69.90;;;47.25;41.87;101831.91;3189801;38;129906;-74
2021/08/12 09:32:51;;;;;;;2.23;0.93;;;38.80;71.00;;;46.91;43.17;101825.69;3190663;38;130778;-72
2021/08/12 09:35:57;;;;;;;1.08;0.77;;;38.50;71.80;;;46.84;43.81;101831.16;3189785;38;130150;-72
2021/08/12 09:39:19;;;;;;;9.85;0.95;;;38.40;73.20;;;46.49;44.36;101825.44;3187837;38;133920;-72
2021/08/12 09:42:26;;;;;;;0.77;0.73;;;38.30;72.50;;;45.80;45.39;101840.91;3187737;38;131169;-72
2021/08/12 09:45:36;;;;;;;1.15;0.50;;;38.10;73.30;;;45.28;46.73;101842.78;3187830;38;130587;-71
2021/08/12 09:48:42;;;;;;;0.88;0.88;;;37.90;73.90;;;44.56;48.45;101835.44;3189110;38;129905;-72
2021/08/12 09:51:48;;;;;;;1.35;0.57;;;37.80;74.30;;;43.56;50.66;101841.84;3187701;38;131334;-71
2021/08/12 09:55:12;;;;;;;0.80;0.77;;;37.60;74.30;;;42.68;52.08;101839.47;3189575;38;131332;-72
2021/08/12 09:58:18;;;;;;;4.32;1.77;;;37.30;74.00;;;41.94;54.34;101832.63;3188875;38;132985;-72
2021/08/12 10:01:26;;;;;;;1.05;0.55;;;37.00;75.40;;;41.51;56.05;101836.34;3188955;30;130889;-72
2021/08/12 10:04:32;;;;;;;0.85;0.63;;;36.80;76.00;;;40.97;56.39;101832.56;3189698;38;129814;-72
2021/08/12 10:07:42;;;;;;;1.92;0.70;;;36.60;75.20;;;40.30;58.06;101844.50;3190584;30;129747;-71
2021/08/12 10:10:48;;;;;;;1.42;0.93;;;36.20;76.20;;;40.26;58.32;101851.56;3188987;38;130844;-72
2021/08/12 10:13:57;;;;;;;0.47;0.47;;;36.00;77.00;;;40.00;59.47;101850.47;3190686;30;130988;-72
2021/08/12 10:17:06;;;;;;;0.63;0.45;;;36.00;77.40;;;39.67;60.22;101847.66;3188916;38;130406;-72
2021/08/12 10:20:18;;;;;;;3.00;1.23;;;35.80;77.60;;;39.37;60.71;101842.31;3189970;30;129654;-72
2021/08/12 10:23:25;;;;;;;1.90;0.80;;;35.70;78.00;;;39.12;61.50;101853.88;3190920;30;129877;-72
2021/08/12 10:26:34;;;;;;;0.50;0.50;;;35.60;77.90;;;38.89;62.13;101853.78;3188542;38;130713;-72
2021/08/12 10:29:43;;;;;;;2.35;0.88;;;35.40;78.50;;;38.85;62.63;101848.31;3190615;30;129856;-72
2021/08/12 10:32:56;;;;;;;1.05;0.75;;;35.30;78.80;;;38.95;62.45;101849.09;3188621;38;131123;-71
2021/08/12 10:36:06;;;;;;;39.35;0.57;;;35.20;78.90;;;38.78;62.37;101850.66;3190197;30;133493;-71
2021/08/12 10:39:16;;;;;;;7.68;0.73;;;35.10;79.10;;;38.70;62.14;101841.75;3189760;38;130922;-72
2021/08/12 10:42:23;;;;;;;0.40;0.40;;;35.00;78.80;;;38.21;62.65;101851.50;3189498;38;130653;-71
2021/08/12 10:45:32;;;;;;;4.38;1.23;;;34.70;78.60;;;37.95;62.26;101853.78;3187609;38;130913;-70
2021/08/12 10:48:39;;;;;;;0.35;0.32;;;34.50;78.30;;;37.65;62.92;101851.00;3190882;30;131040;-70
2021/08/12 10:51:48;;;;;;;0.20;0.20;;;34.10;78.90;;;37.69;62.42;101849.63;3190250;38;131341;-71
2021/08/12 10:55:21;;;;;;;0.10;0.10;;;33.90;79.10;;;37.12;62.80;101851.50;3190286;38;131960;-71
2021/08/12 10:58:53;;;;;;;0.55;0.55;;;33.60;78.30;;;36.92;63.16;101842.63;3189335;38;130246;-70
2021/08/12 11:01:59;;;;;;;2.33;1.00;;;33.20;79.00;;;36.82;63.43;101846.59;3190441;38;129938;-71
2021/08/12 11:05:13;;;;;;;0.47;0.35;;;33.10;80.10;;;36.84;63.27;101847.72;3189482;38;131225;-71
2021/08/12 11:08:19;;;;;;;1.65;0.50;;;33.00;80.00;;;36.70;63.38;101841.84;3188302;38;131555;-70
2021/08/12 11:11:57;;;;;;;2.97;0.70;;;32.90;80.20;;;36.72;63.70;101847.78;3190729;30;130209;-70
2021/08/12 11:15:07;;;;;;;1.27;0.25;;;32.80;80.00;;;36.87;63.33;101841.22;3188204;30;131391;-71
2021/08/12 11:18:18;;;;;;;0.50;0.20;;;32.80;80.70;;;36.92;63.86;101835.03;3187838;38;130212;-74
2021/08/12 11:21:44;;;;;;;2.00;0.70;;;32.90;80.90;;;36.57;63.75;101850.28;3187449;38;130767;-73
2021/08/12 11:24:53;;;;;;;0.30;0.30;;;32.80;79.70;;;36.44;64.03;101845.94;3191824;38;130945;-74
2021/08/12 11:28:06;;;;;;;0.85;0.75;;;32.70;80.60;;;36.59;63.68;101844.22;3191550;38;130797;-74
2021/08/12 11:31:55;;;;;;;1.70;0.70;;;32.70;80.80;;;36.67;63.93;101840.75;3190930;30;130658;-74
2021/08/12 11:35:07;;;;;;;0.22;0.22;;;32.70;80.60;;;36.60;63.64;101837.41;3188947;38;129847;-73
2021/08/12 11:38:13;;;;;;;0.30;0.30;;;32.70;80.50;;;36.53;64.05;101841.25;3188886;38;130644;-74
2021/08/12 11:41:20;;;;;;;0.60;0.60;;;32.70;80.60;;;36.47;64.22;101836.66;3188399;38;130294;-72
2021/08/12 11:44:26;;;;;;;0.75;0.73;;;32.70;80.70;;;36.32;64.62;101830.00;3187503;38;131419;-74
2021/08/12 11:47:34;;;;;;;0.95;0.65;;;32.60;80.60;;;36.44;64.20;101834.78;3187603;38;130400;-74
2021/08/12 11:50:41;;;;;;;0.63;0.57;;;32.60;80.90;;;36.40;63.86;101846.06;3186741;38;130733;-71
2021/08/12 11:53:53;;;;;;;0.52;0.45;;;32.60;80.70;;;36.15;64.70;101845.34;3190540;30;129986;-71
2021/08/12 11:56:59;;;;;;;0.40;0.35;;;32.50;80.60;;;36.24;64.49;101848.22;3187502;38;130142;-73
2021/08/12 12:00:12;;;;;;;1.58;0.73;;;32.50;80.80;;;36.35;64.64;101834.69;3189685;30;129807;-72
2021/08/12 12:03:30;;;;;;;1.67;0.63;;;32.60;81.00;;;36.63;63.77;101844.88;3189091;30;130235;-72
2021/08/12 12:06:44;;;;;;;0.30;0.30;;;32.70;80.40;;;36.55;64.53;101847.16;3190136;30;129916;-72
2021/08/12 12:09:51;;;;;;;0.52;0.38;;;32.70;80.60;;;36.05;65.20;101847.22;3191754;38;131663;-72
2021/08/12 12:13:09;;;;;;;0.30;0.20;;;32.60;80.40;;;35.75;65.91;101843.47;3188802;38;130322;-72
2021/08/12 12:16:15;;;;;;;0.85;0.77;;;32.40;80.80;;;36.38;64.33;101834.56;3186828;38;130800;-72
2021/08/12 12:19:23;;;;;;;4.35;0.50;;;32.50;81.10;;;37.13;63.15;101830.69;3186992;38;129885;-72
2021/08/12 12:22:30;;;;;;;0.90;0.57;;;32.80;80.70;;;37.39;62.23;101832.84;3187095;38;130509;-72
2021/08/12 12:25:41;;;;;;;1.38;1.02;;;33.10;80.30;;;36.84;63.78;101833.75;3187465;38;130869;-72
2021/08/12 12:28:49;;;;;;;1.30;0.65;;;33.20;79.90;;;36.45;65.19;101831.50;3186513;38;131136;-72
2021/08/12 12:32:02;;;;;;;0.80;0.80;;;33.00;80.10;;;35.86;66.07;101836.31;3186486;38;129663;-72
2021/08/12 12:35:13;;;;;;;0.47;0.27;;;32.80;80.30;;;35.72;65.83;101836.00;3186180;38;130653;-72
2021/08/12 12:38:23;;;;;;;1.38;0.28;;;32.50;80.70;;;36.24;65.13;101828.69;3186363;38;130972;-74
2021/08/12 12:41:29;;;;;;;1.98;1.48;;;32.50;81.10;;;36.06;65.54;101834.84;3188899;30;129769;-71
2021/08/12 12:44:36;;;;;;;8.93;1.70;;;32.60;81.00;;;35.77;65.92;101819.50;3189568;30;129841;-71
2021/08/12 12:47:42;;;;;;;1.33;0.63;;;32.50;81.00;;;35.49;66.67;101820.34;3186515;38;130616;-71
2021/08/12 12:50:52;;;;;;;1.85;0.88;;;32.40;81.10;;;35.34;66.61;101830.38;3185844;38;130693;-71
2021/08/12 12:53:58;;;;;;;0.28;0.28;;;32.20;81.20;;;35.04;66.83;101825.28;3187666;38;130303;-71
2021/08/12 12:57:07;;;;;;;0.40;0.40;;;32.00;80.70;;;35.02;66.72;101830.50;3187548;38;130138;-71
2021/08/12 13:00:15;;;;;;;0.60;0.35;;;31.90;81.20;;;35.42;66.01;101836.53;3188750;38;131899;-71